sensor_id;sensor_type;location;lat;lon;timestamp;P1;durP1;ratioP1;P2;durP2;ratioP2
5674;SDS011;2860;54.284;10.158;2023-05-07T00:01:18;25.35;;;18.10;;
5674;SDS011;2860;54.284;10.158;2023-05-07T00:03:43;25.38;;;17.33;;
5674;SDS011;2860;54.284;10.158;2023-05-07T00:06:09;31.40;;;16.25;;
5674;SDS011;2860;54.284;10.158;2023-05-07T00:08:37;20.13;;;16.58;;
5674;SDS011;2860;54.284;10.158;2023-05-07T00:11:03;24.17;;;15.00;;
5674;SDS011;2860;54.284;10.158;2023-05-07T00:13:28;30.70;;;15.32;;
5674;SDS011;2860;54.284;10.158;2023-05-07T00:16:00;31.88;;;18.38;;
5674;SDS011;2860;54.284;10.158;2023-05-07T00:18:28;27.45;;;16.23;;
5674;SDS011;2860;54.284;10.158;2023-05-07T00:20:54;21.55;;;15.50;;
5674;SDS011;2860;54.284;10.158;2023-05-07T00:23:21;27.85;;;15.32;;
5674;SDS011;2860;54.284;10.158;2023-05-07T00:25:46;22.60;;;15.93;;
5674;SDS011;2860;54.284;10.158;2023-05-07T00:28:12;19.60;;;14.50;;
5674;SDS011;2860;54.284;10.158;2023-05-07T00:30:37;17.83;;;15.45;;
5674;SDS011;2860;54.284;10.158;2023-05-07T00:33:03;18.98;;;14.65;;
5674;SDS011;2860;54.284;10.158;2023-05-07T00:35:29;21.70;;;14.80;;
5674;SDS011;2860;54.284;10.158;2023-05-07T00:37:55;19.85;;;15.82;;
5674;SDS011;2860;54.284;10.158;2023-05-07T00:40:20;27.73;;;16.08;;
5674;SDS011;2860;54.284;10.158;2023-05-07T00:42:46;19.25;;;14.18;;
5674;SDS011;2860;54.284;10.158;2023-05-07T00:45:14;17.35;;;14.32;;
5674;SDS011;2860;54.284;10.158;2023-05-07T00:47:40;17.77;;;15.18;;
5674;SDS011;2860;54.284;10.158;2023-05-07T00:50:07;23.95;;;15.85;;
5674;SDS011;2860;54.284;10.158;2023-05-07T00:52:34;22.85;;;15.95;;
5674;SDS011;2860;54.284;10.158;2023-05-07T00:55:05;20.13;;;15.43;;
5674;SDS011;2860;54.284;10.158;2023-05-07T00:57:37;23.08;;;15.52;;
5674;SDS011;2860;54.284;10.158;2023-05-07T01:00:06;19.67;;;16.00;;
5674;SDS011;2860;54.284;10.158;2023-05-07T01:02:37;20.20;;;15.73;;
5674;SDS011;2860;54.284;10.158;2023-05-07T01:05:03;22.23;;;14.90;;
5674;SDS011;2860;54.284;10.158;2023-05-07T01:07:31;22.65;;;16.63;;
5674;SDS011;2860;54.284;10.158;2023-05-07T01:09:58;23.85;;;15.05;;
5674;SDS011;2860;54.284;10.158;2023-05-07T01:12:24;21.23;;;15.40;;
5674;SDS011;2860;54.284;10.158;2023-05-07T01:14:52;20.42;;;16.38;;
5674;SDS011;2860;54.284;10.158;2023-05-07T01:17:18;20.95;;;16.33;;
5674;SDS011;2860;54.284;10.158;2023-05-07T01:19:44;21.27;;;16.25;;
5674;SDS011;2860;54.284;10.158;2023-05-07T01:22:10;19.65;;;15.38;;
5674;SDS011;2860;54.284;10.158;2023-05-07T01:24:37;20.13;;;17.35;;
5674;SDS011;2860;54.284;10.158;2023-05-07T01:27:02;21.70;;;16.13;;
5674;SDS011;2860;54.284;10.158;2023-05-07T01:29:28;17.75;;;15.57;;
5674;SDS011;2860;54.284;10.158;2023-05-07T01:31:54;19.00;;;14.98;;
5674;SDS011;2860;54.284;10.158;2023-05-07T01:34:22;20.63;;;14.82;;
5674;SDS011;2860;54.284;10.158;2023-05-07T01:36:48;24.15;;;15.75;;
5674;SDS011;2860;54.284;10.158;2023-05-07T01:39:14;18.33;;;14.90;;
5674;SDS011;2860;54.284;10.158;2023-05-07T01:41:41;18.90;;;16.00;;
5674;SDS011;2860;54.284;10.158;2023-05-07T01:44:08;20.63;;;16.10;;
5674;SDS011;2860;54.284;10.158;2023-05-07T01:46:34;21.50;;;17.33;;
5674;SDS011;2860;54.284;10.158;2023-05-07T01:49:00;18.40;;;15.40;;
5674;SDS011;2860;54.284;10.158;2023-05-07T01:51:26;20.20;;;16.67;;
5674;SDS011;2860;54.284;10.158;2023-05-07T01:53:52;18.58;;;15.93;;
5674;SDS011;2860;54.284;10.158;2023-05-07T01:56:18;18.45;;;16.40;;
5674;SDS011;2860;54.284;10.158;2023-05-07T01:58:45;16.92;;;14.85;;
5674;SDS011;2860;54.284;10.158;2023-05-07T02:01:12;15.05;;;12.70;;
5674;SDS011;2860;54.284;10.158;2023-05-07T02:03:38;16.02;;;14.43;;
5674;SDS011;2860;54.284;10.158;2023-05-07T02:06:03;17.42;;;14.90;;
5674;SDS011;2860;54.284;10.158;2023-05-07T02:08:29;20.33;;;15.70;;
5674;SDS011;2860;54.284;10.158;2023-05-07T02:10:55;20.42;;;14.85;;
5674;SDS011;2860;54.284;10.158;2023-05-07T02:13:20;17.85;;;15.57;;
5674;SDS011;2860;54.284;10.158;2023-05-07T02:15:47;19.30;;;15.02;;
5674;SDS011;2860;54.284;10.158;2023-05-07T02:18:15;17.38;;;15.20;;
5674;SDS011;2860;54.284;10.158;2023-05-07T02:20:42;17.35;;;13.82;;
5674;SDS011;2860;54.284;10.158;2023-05-07T02:23:07;16.98;;;15.32;;
5674;SDS011;2860;54.284;10.158;2023-05-07T02:25:33;25.00;;;15.93;;
5674;SDS011;2860;54.284;10.158;2023-05-07T02:27:59;15.73;;;14.07;;
5674;SDS011;2860;54.284;10.158;2023-05-07T02:30:24;18.38;;;15.65;;
5674;SDS011;2860;54.284;10.158;2023-05-07T02:32:50;16.95;;;15.18;;
5674;SDS011;2860;54.284;10.158;2023-05-07T02:35:16;16.65;;;14.75;;
5674;SDS011;2860;54.284;10.158;2023-05-07T02:37:41;19.30;;;14.60;;
5674;SDS011;2860;54.284;10.158;2023-05-07T02:40:07;14.63;;;13.32;;
5674;SDS011;2860;54.284;10.158;2023-05-07T02:42:33;15.80;;;13.98;;
5674;SDS011;2860;54.284;10.158;2023-05-07T02:44:59;20.90;;;15.50;;
5674;SDS011;2860;54.284;10.158;2023-05-07T02:47:24;15.00;;;13.52;;
5674;SDS011;2860;54.284;10.158;2023-05-07T02:49:53;14.57;;;13.23;;
5674;SDS011;2860;54.284;10.158;2023-05-07T02:52:19;16.90;;;15.10;;
5674;SDS011;2860;54.284;10.158;2023-05-07T02:54:44;16.75;;;14.55;;
5674;SDS011;2860;54.284;10.158;2023-05-07T02:57:10;16.02;;;13.18;;
5674;SDS011;2860;54.284;10.158;2023-05-07T02:59:35;17.38;;;15.57;;
5674;SDS011;2860;54.284;10.158;2023-05-07T03:02:01;16.02;;;13.07;;
5674;SDS011;2860;54.284;10.158;2023-05-07T03:04:26;17.60;;;14.35;;
5674;SDS011;2860;54.284;10.158;2023-05-07T03:06:52;15.48;;;13.98;;
5674;SDS011;2860;54.284;10.158;2023-05-07T03:09:17;16.30;;;14.70;;
5674;SDS011;2860;54.284;10.158;2023-05-07T03:11:43;22.00;;;14.43;;
5674;SDS011;2860;54.284;10.158;2023-05-07T03:14:09;14.82;;;13.40;;
5674;SDS011;2860;54.284;10.158;2023-05-07T03:16:35;15.05;;;13.57;;
5674;SDS011;2860;54.284;10.158;2023-05-07T03:19:00;15.65;;;13.75;;
5674;SDS011;2860;54.284;10.158;2023-05-07T03:21:26;12.90;;;11.75;;
5674;SDS011;2860;54.284;10.158;2023-05-07T03:23:51;15.18;;;13.57;;
5674;SDS011;2860;54.284;10.158;2023-05-07T03:26:18;15.23;;;13.45;;
5674;SDS011;2860;54.284;10.158;2023-05-07T03:28:43;15.80;;;14.10;;
5674;SDS011;2860;54.284;10.158;2023-05-07T03:31:09;13.90;;;11.27;;
5674;SDS011;2860;54.284;10.158;2023-05-07T03:33:34;15.70;;;13.15;;
5674;SDS011;2860;54.284;10.158;2023-05-07T03:36:00;16.27;;;14.40;;
5674;SDS011;2860;54.284;10.158;2023-05-07T03:38:26;15.05;;;13.15;;
5674;SDS011;2860;54.284;10.158;2023-05-07T03:40:51;15.75;;;14.05;;
5674;SDS011;2860;54.284;10.158;2023-05-07T03:43:17;14.70;;;13.20;;
5674;SDS011;2860;54.284;10.158;2023-05-07T03:45:43;15.50;;;13.88;;
5674;SDS011;2860;54.284;10.158;2023-05-07T03:48:08;13.98;;;12.70;;
5674;SDS011;2860;54.284;10.158;2023-05-07T03:50:34;14.68;;;13.18;;
5674;SDS011;2860;54.284;10.158;2023-05-07T03:52:59;16.00;;;14.40;;
5674;SDS011;2860;54.284;10.158;2023-05-07T03:55:25;14.45;;;13.15;;
5674;SDS011;2860;54.284;10.158;2023-05-07T03:57:50;20.75;;;13.88;;
5674;SDS011;2860;54.284;10.158;2023-05-07T04:00:16;14.00;;;12.82;;
5674;SDS011;2860;54.284;10.158;2023-05-07T04:02:41;14.15;;;12.57;;
5674;SDS011;2860;54.284;10.158;2023-05-07T04:05:07;15.43;;;14.02;;
5674;SDS011;2860;54.284;10.158;2023-05-07T04:07:33;13.88;;;12.57;;
5674;SDS011;2860;54.284;10.158;2023-05-07T04:09:58;14.38;;;12.88;;
5674;SDS011;2860;54.284;10.158;2023-05-07T04:12:24;12.50;;;11.20;;
5674;SDS011;2860;54.284;10.158;2023-05-07T04:14:49;15.02;;;13.63;;
5674;SDS011;2860;54.284;10.158;2023-05-07T04:17:15;14.18;;;12.98;;
5674;SDS011;2860;54.284;10.158;2023-05-07T04:19:40;13.52;;;12.25;;
5674;SDS011;2860;54.284;10.158;2023-05-07T04:22:10;14.02;;;12.55;;
5674;SDS011;2860;54.284;10.158;2023-05-07T04:24:36;14.48;;;12.00;;
5674;SDS011;2860;54.284;10.158;2023-05-07T04:27:01;12.88;;;11.88;;
5674;SDS011;2860;54.284;10.158;2023-05-07T04:29:27;12.57;;;11.38;;
5674;SDS011;2860;54.284;10.158;2023-05-07T04:31:53;13.63;;;12.10;;
5674;SDS011;2860;54.284;10.158;2023-05-07T04:34:20;13.93;;;11.13;;
5674;SDS011;2860;54.284;10.158;2023-05-07T04:36:46;12.77;;;11.45;;
5674;SDS011;2860;54.284;10.158;2023-05-07T04:39:12;12.27;;;10.95;;
5674;SDS011;2860;54.284;10.158;2023-05-07T04:41:38;11.98;;;10.85;;
5674;SDS011;2860;54.284;10.158;2023-05-07T04:44:04;14.40;;;12.48;;
5674;SDS011;2860;54.284;10.158;2023-05-07T04:46:30;12.93;;;11.52;;
5674;SDS011;2860;54.284;10.158;2023-05-07T04:48:56;13.65;;;12.32;;
5674;SDS011;2860;54.284;10.158;2023-05-07T04:51:21;13.23;;;11.93;;
5674;SDS011;2860;54.284;10.158;2023-05-07T04:53:48;13.23;;;12.02;;
5674;SDS011;2860;54.284;10.158;2023-05-07T04:56:14;11.95;;;10.88;;
5674;SDS011;2860;54.284;10.158;2023-05-07T04:58:39;13.57;;;12.27;;
5674;SDS011;2860;54.284;10.158;2023-05-07T05:01:05;12.65;;;11.55;;
5674;SDS011;2860;54.284;10.158;2023-05-07T05:03:31;13.23;;;12.10;;
5674;SDS011;2860;54.284;10.158;2023-05-07T05:05:56;13.80;;;12.50;;
5674;SDS011;2860;54.284;10.158;2023-05-07T05:08:24;11.75;;;10.65;;
5674;SDS011;2860;54.284;10.158;2023-05-07T05:10:49;13.48;;;12.25;;
5674;SDS011;2860;54.284;10.158;2023-05-07T05:13:15;13.07;;;11.88;;
5674;SDS011;2860;54.284;10.158;2023-05-07T05:15:41;14.57;;;13.18;;
5674;SDS011;2860;54.284;10.158;2023-05-07T05:18:06;14.30;;;13.10;;
5674;SDS011;2860;54.284;10.158;2023-05-07T05:20:32;18.17;;;13.68;;
5674;SDS011;2860;54.284;10.158;2023-05-07T05:22:58;15.05;;;13.57;;
5674;SDS011;2860;54.284;10.158;2023-05-07T05:25:23;13.95;;;12.60;;
5674;SDS011;2860;54.284;10.158;2023-05-07T05:27:49;13.23;;;12.10;;
5674;SDS011;2860;54.284;10.158;2023-05-07T05:30:14;11.88;;;10.77;;
5674;SDS011;2860;54.284;10.158;2023-05-07T05:32:40;14.27;;;12.98;;
5674;SDS011;2860;54.284;10.158;2023-05-07T05:35:06;15.05;;;11.82;;
5674;SDS011;2860;54.284;10.158;2023-05-07T05:37:31;13.23;;;11.50;;
5674;SDS011;2860;54.284;10.158;2023-05-07T05:39:57;13.68;;;11.63;;
5674;SDS011;2860;54.284;10.158;2023-05-07T05:42:23;10.98;;;9.88;;
5674;SDS011;2860;54.284;10.158;2023-05-07T05:44:48;12.07;;;11.10;;
5674;SDS011;2860;54.284;10.158;2023-05-07T05:47:14;12.27;;;11.27;;
5674;SDS011;2860;54.284;10.158;2023-05-07T05:49:39;13.48;;;11.48;;
5674;SDS011;2860;54.284;10.158;2023-05-07T05:52:05;11.48;;;10.35;;
5674;SDS011;2860;54.284;10.158;2023-05-07T05:54:30;13.00;;;11.20;;
5674;SDS011;2860;54.284;10.158;2023-05-07T05:56:56;13.30;;;11.55;;
5674;SDS011;2860;54.284;10.158;2023-05-07T05:59:22;11.35;;;10.35;;
5674;SDS011;2860;54.284;10.158;2023-05-07T06:01:48;12.15;;;11.05;;
5674;SDS011;2860;54.284;10.158;2023-05-07T06:04:13;11.35;;;10.35;;
5674;SDS011;2860;54.284;10.158;2023-05-07T06:06:39;11.07;;;10.13;;
5674;SDS011;2860;54.284;10.158;2023-05-07T06:09:04;11.00;;;10.00;;
5674;SDS011;2860;54.284;10.158;2023-05-07T06:11:31;13.00;;;11.63;;
5674;SDS011;2860;54.284;10.158;2023-05-07T06:13:57;10.48;;;9.57;;
5674;SDS011;2860;54.284;10.158;2023-05-07T06:16:24;11.35;;;10.20;;
5674;SDS011;2860;54.284;10.158;2023-05-07T06:18:49;12.27;;;9.65;;
5674;SDS011;2860;54.284;10.158;2023-05-07T06:21:15;11.68;;;10.65;;
5674;SDS011;2860;54.284;10.158;2023-05-07T06:23:40;11.23;;;10.00;;
5674;SDS011;2860;54.284;10.158;2023-05-07T06:26:06;10.15;;;9.35;;
5674;SDS011;2860;54.284;10.158;2023-05-07T06:28:32;10.40;;;9.45;;
5674;SDS011;2860;54.284;10.158;2023-05-07T06:31:16;10.80;;;9.85;;
5674;SDS011;2860;54.284;10.158;2023-05-07T06:33:45;11.18;;;10.02;;
5674;SDS011;2860;54.284;10.158;2023-05-07T06:36:11;10.82;;;8.05;;
5674;SDS011;2860;54.284;10.158;2023-05-07T06:38:37;10.27;;;9.27;;
5674;SDS011;2860;54.284;10.158;2023-05-07T06:41:02;9.60;;;8.73;;
5674;SDS011;2860;54.284;10.158;2023-05-07T06:43:28;9.73;;;9.00;;
5674;SDS011;2860;54.284;10.158;2023-05-07T06:45:53;10.65;;;9.77;;
5674;SDS011;2860;54.284;10.158;2023-05-07T06:48:19;10.38;;;9.55;;
5674;SDS011;2860;54.284;10.158;2023-05-07T06:50:44;10.38;;;9.57;;
5674;SDS011;2860;54.284;10.158;2023-05-07T06:53:10;10.38;;;9.50;;
5674;SDS011;2860;54.284;10.158;2023-05-07T06:55:36;8.90;;;8.30;;
5674;SDS011;2860;54.284;10.158;2023-05-07T06:58:03;10.75;;;9.75;;
5674;SDS011;2860;54.284;10.158;2023-05-07T07:00:28;10.43;;;9.52;;
5674;SDS011;2860;54.284;10.158;2023-05-07T07:02:55;9.90;;;9.20;;
5674;SDS011;2860;54.284;10.158;2023-05-07T07:05:21;9.00;;;8.30;;
5674;SDS011;2860;54.284;10.158;2023-05-07T07:07:46;10.18;;;9.15;;
5674;SDS011;2860;54.284;10.158;2023-05-07T07:10:17;9.95;;;9.00;;
5674;SDS011;2860;54.284;10.158;2023-05-07T07:12:44;9.77;;;8.77;;
5674;SDS011;2860;54.284;10.158;2023-05-07T07:15:09;8.70;;;7.95;;
5674;SDS011;2860;54.284;10.158;2023-05-07T07:17:35;8.60;;;7.97;;
5674;SDS011;2860;54.284;10.158;2023-05-07T07:20:01;8.98;;;8.32;;
5674;SDS011;2860;54.284;10.158;2023-05-07T07:22:27;9.07;;;7.75;;
5674;SDS011;2860;54.284;10.158;2023-05-07T07:24:53;8.80;;;8.18;;
5674;SDS011;2860;54.284;10.158;2023-05-07T07:27:19;7.47;;;7.00;;
5674;SDS011;2860;54.284;10.158;2023-05-07T07:29:44;9.13;;;8.27;;
5674;SDS011;2860;54.284;10.158;2023-05-07T07:32:10;14.63;;;8.43;;
5674;SDS011;2860;54.284;10.158;2023-05-07T07:34:35;7.88;;;7.38;;
5674;SDS011;2860;54.284;10.158;2023-05-07T07:37:01;7.85;;;7.38;;
5674;SDS011;2860;54.284;10.158;2023-05-07T07:39:30;6.75;;;6.35;;
5674;SDS011;2860;54.284;10.158;2023-05-07T07:41:56;6.40;;;6.00;;
5674;SDS011;2860;54.284;10.158;2023-05-07T07:44:21;7.30;;;6.82;;
5674;SDS011;2860;54.284;10.158;2023-05-07T07:46:47;6.28;;;5.85;;
5674;SDS011;2860;54.284;10.158;2023-05-07T07:49:13;6.53;;;6.13;;
5674;SDS011;2860;54.284;10.158;2023-05-07T07:51:38;5.75;;;5.40;;
5674;SDS011;2860;54.284;10.158;2023-05-07T07:54:04;6.20;;;5.90;;
5674;SDS011;2860;54.284;10.158;2023-05-07T07:56:31;6.43;;;5.85;;
5674;SDS011;2860;54.284;10.158;2023-05-07T07:58:58;5.95;;;5.47;;
5674;SDS011;2860;54.284;10.158;2023-05-07T08:01:23;5.95;;;5.57;;
5674;SDS011;2860;54.284;10.158;2023-05-07T08:03:49;6.07;;;5.47;;
5674;SDS011;2860;54.284;10.158;2023-05-07T08:06:15;5.75;;;5.45;;
5674;SDS011;2860;54.284;10.158;2023-05-07T08:08:40;6.20;;;5.82;;
5674;SDS011;2860;54.284;10.158;2023-05-07T08:11:06;7.25;;;6.72;;
5674;SDS011;2860;54.284;10.158;2023-05-07T08:13:32;7.20;;;6.70;;
5674;SDS011;2860;54.284;10.158;2023-05-07T08:15:57;6.20;;;6.00;;
5674;SDS011;2860;54.284;10.158;2023-05-07T08:18:23;7.82;;;7.32;;
5674;SDS011;2860;54.284;10.158;2023-05-07T08:20:50;7.53;;;6.93;;
5674;SDS011;2860;54.284;10.158;2023-05-07T08:23:15;7.63;;;7.03;;
5674;SDS011;2860;54.284;10.158;2023-05-07T08:25:41;8.18;;;7.60;;
5674;SDS011;2860;54.284;10.158;2023-05-07T08:28:07;8.00;;;7.55;;
5674;SDS011;2860;54.284;10.158;2023-05-07T08:30:33;6.85;;;6.43;;
5674;SDS011;2860;54.284;10.158;2023-05-07T08:32:59;7.20;;;6.70;;
5674;SDS011;2860;54.284;10.158;2023-05-07T08:35:25;6.68;;;6.13;;
5674;SDS011;2860;54.284;10.158;2023-05-07T08:37:52;6.65;;;6.18;;
5674;SDS011;2860;54.284;10.158;2023-05-07T08:40:17;7.07;;;6.57;;
5674;SDS011;2860;54.284;10.158;2023-05-07T08:42:43;6.43;;;6.03;;
5674;SDS011;2860;54.284;10.158;2023-05-07T08:45:10;7.35;;;6.93;;
5674;SDS011;2860;54.284;10.158;2023-05-07T08:47:40;7.50;;;7.10;;
5674;SDS011;2860;54.284;10.158;2023-05-07T08:50:11;7.63;;;7.13;;
5674;SDS011;2860;54.284;10.158;2023-05-07T08:52:38;5.95;;;5.57;;
5674;SDS011;2860;54.284;10.158;2023-05-07T08:55:05;5.35;;;5.15;;
5674;SDS011;2860;54.284;10.158;2023-05-07T08:57:32;5.68;;;5.38;;
5674;SDS011;2860;54.284;10.158;2023-05-07T08:59:57;5.90;;;5.60;;
5674;SDS011;2860;54.284;10.158;2023-05-07T09:02:23;6.15;;;5.85;;
5674;SDS011;2860;54.284;10.158;2023-05-07T09:04:49;6.15;;;5.88;;
5674;SDS011;2860;54.284;10.158;2023-05-07T09:07:15;5.25;;;5.05;;
5674;SDS011;2860;54.284;10.158;2023-05-07T09:09:41;6.32;;;6.00;;
5674;SDS011;2860;54.284;10.158;2023-05-07T09:12:08;6.25;;;5.95;;
5674;SDS011;2860;54.284;10.158;2023-05-07T09:14:34;6.18;;;5.88;;
5674;SDS011;2860;54.284;10.158;2023-05-07T09:17:00;6.53;;;6.15;;
5674;SDS011;2860;54.284;10.158;2023-05-07T09:19:26;5.13;;;4.82;;
5674;SDS011;2860;54.284;10.158;2023-05-07T09:22:00;5.75;;;5.43;;
5674;SDS011;2860;54.284;10.158;2023-05-07T09:24:27;5.18;;;4.88;;
5674;SDS011;2860;54.284;10.158;2023-05-07T09:26:57;5.97;;;5.40;;
5674;SDS011;2860;54.284;10.158;2023-05-07T09:29:22;4.90;;;4.70;;
5674;SDS011;2860;54.284;10.158;2023-05-07T09:31:48;5.15;;;4.95;;
5674;SDS011;2860;54.284;10.158;2023-05-07T09:34:14;5.90;;;5.63;;
5674;SDS011;2860;54.284;10.158;2023-05-07T09:36:39;5.22;;;4.82;;
5674;SDS011;2860;54.284;10.158;2023-05-07T09:39:05;5.00;;;4.47;;
5674;SDS011;2860;54.284;10.158;2023-05-07T09:41:30;5.57;;;4.50;;
5674;SDS011;2860;54.284;10.158;2023-05-07T09:43:57;6.15;;;5.85;;
5674;SDS011;2860;54.284;10.158;2023-05-07T09:46:25;5.07;;;4.85;;
5674;SDS011;2860;54.284;10.158;2023-05-07T09:48:56;5.00;;;4.80;;
5674;SDS011;2860;54.284;10.158;2023-05-07T09:51:56;5.68;;;5.28;;
5674;SDS011;2860;54.284;10.158;2023-05-07T09:54:16;5.25;;;5.00;;
5674;SDS011;2860;54.284;10.158;2023-05-07T09:56:43;4.28;;;4.07;;
5674;SDS011;2860;54.284;10.158;2023-05-07T09:59:10;4.85;;;4.70;;
5674;SDS011;2860;54.284;10.158;2023-05-07T10:01:38;5.32;;;4.97;;
5674;SDS011;2860;54.284;10.158;2023-05-07T10:04:07;5.05;;;4.85;;
5674;SDS011;2860;54.284;10.158;2023-05-07T10:06:33;5.55;;;5.32;;
5674;SDS011;2860;54.284;10.158;2023-05-07T10:09:00;5.38;;;5.07;;
5674;SDS011;2860;54.284;10.158;2023-05-07T10:11:26;4.72;;;4.40;;
5674;SDS011;2860;54.284;10.158;2023-05-07T10:13:52;8.27;;;4.00;;
5674;SDS011;2860;54.284;10.158;2023-05-07T10:16:18;5.20;;;4.93;;
5674;SDS011;2860;54.284;10.158;2023-05-07T10:18:44;3.85;;;3.72;;
5674;SDS011;2860;54.284;10.158;2023-05-07T10:21:11;5.35;;;5.05;;
5674;SDS011;2860;54.284;10.158;2023-05-07T10:23:51;5.05;;;4.60;;
5674;SDS011;2860;54.284;10.158;2023-05-07T10:26:22;5.38;;;5.05;;
5674;SDS011;2860;54.284;10.158;2023-05-07T10:28:51;4.65;;;4.40;;
5674;SDS011;2860;54.284;10.158;2023-05-07T10:34:11;5.93;;;4.80;;
5674;SDS011;2860;54.284;10.158;2023-05-07T10:36:41;4.75;;;4.43;;
5674;SDS011;2860;54.284;10.158;2023-05-07T10:39:07;4.40;;;4.25;;
5674;SDS011;2860;54.284;10.158;2023-05-07T10:41:33;4.28;;;4.18;;
5674;SDS011;2860;54.284;10.158;2023-05-07T10:43:58;4.15;;;4.00;;
5674;SDS011;2860;54.284;10.158;2023-05-07T10:46:27;3.75;;;3.65;;
5674;SDS011;2860;54.284;10.158;2023-05-07T10:51:27;4.05;;;3.95;;
5674;SDS011;2860;54.284;10.158;2023-05-07T10:56:38;4.07;;;4.07;;
5674;SDS011;2860;54.284;10.158;2023-05-07T11:01:49;4.32;;;3.97;;
5674;SDS011;2860;54.284;10.158;2023-05-07T11:04:17;4.20;;;4.07;;
5674;SDS011;2860;54.284;10.158;2023-05-07T11:15:01;3.40;;;3.30;;
5674;SDS011;2860;54.284;10.158;2023-05-07T11:17:30;3.65;;;3.55;;
5674;SDS011;2860;54.284;10.158;2023-05-07T11:19:57;42.03;;;4.18;;
5674;SDS011;2860;54.284;10.158;2023-05-07T11:25:01;10.73;;;10.00;;
5674;SDS011;2860;54.284;10.158;2023-05-07T11:27:28;3.45;;;3.35;;
5674;SDS011;2860;54.284;10.158;2023-05-07T11:29:54;6.22;;;5.88;;
5674;SDS011;2860;54.284;10.158;2023-05-07T11:32:23;2.85;;;2.78;;
5674;SDS011;2860;54.284;10.158;2023-05-07T11:34:52;3.13;;;3.00;;
5674;SDS011;2860;54.284;10.158;2023-05-07T11:37:22;2.70;;;2.60;;
5674;SDS011;2860;54.284;10.158;2023-05-07T11:39:49;2.70;;;2.67;;
5674;SDS011;2860;54.284;10.158;2023-05-07T11:42:28;2.45;;;2.45;;
5674;SDS011;2860;54.284;10.158;2023-05-07T11:44:55;2.35;;;2.30;;
5674;SDS011;2860;54.284;10.158;2023-05-07T11:47:21;2.47;;;2.47;;
5674;SDS011;2860;54.284;10.158;2023-05-07T11:49:51;2.60;;;2.58;;
5674;SDS011;2860;54.284;10.158;2023-05-07T11:52:18;2.40;;;2.30;;
5674;SDS011;2860;54.284;10.158;2023-05-07T11:54:48;3.35;;;2.60;;
5674;SDS011;2860;54.284;10.158;2023-05-07T11:57:17;3.28;;;3.08;;
5674;SDS011;2860;54.284;10.158;2023-05-07T11:59:43;3.05;;;2.95;;
5674;SDS011;2860;54.284;10.158;2023-05-07T12:02:09;1.92;;;1.92;;
5674;SDS011;2860;54.284;10.158;2023-05-07T12:04:35;1.88;;;1.88;;
5674;SDS011;2860;54.284;10.158;2023-05-07T12:07:02;2.05;;;2.05;;
5674;SDS011;2860;54.284;10.158;2023-05-07T12:09:28;1.75;;;1.75;;
5674;SDS011;2860;54.284;10.158;2023-05-07T12:11:53;2.15;;;2.05;;
5674;SDS011;2860;54.284;10.158;2023-05-07T12:14:21;2.45;;;2.35;;
5674;SDS011;2860;54.284;10.158;2023-05-07T12:16:46;2.25;;;2.15;;
5674;SDS011;2860;54.284;10.158;2023-05-07T12:19:12;2.00;;;2.00;;
5674;SDS011;2860;54.284;10.158;2023-05-07T12:21:39;2.47;;;2.28;;
5674;SDS011;2860;54.284;10.158;2023-05-07T12:24:05;1.90;;;1.80;;
5674;SDS011;2860;54.284;10.158;2023-05-07T12:26:31;1.73;;;1.70;;
5674;SDS011;2860;54.284;10.158;2023-05-07T12:28:57;1.40;;;1.40;;
5674;SDS011;2860;54.284;10.158;2023-05-07T12:31:22;1.42;;;1.42;;
5674;SDS011;2860;54.284;10.158;2023-05-07T12:33:51;1.63;;;1.63;;
5674;SDS011;2860;54.284;10.158;2023-05-07T12:36:16;2.03;;;1.92;;
5674;SDS011;2860;54.284;10.158;2023-05-07T12:38:42;1.73;;;1.63;;
5674;SDS011;2860;54.284;10.158;2023-05-07T12:41:08;1.98;;;1.90;;
5674;SDS011;2860;54.284;10.158;2023-05-07T12:43:35;2.67;;;1.63;;
5674;SDS011;2860;54.284;10.158;2023-05-07T12:46:01;1.75;;;1.75;;
5674;SDS011;2860;54.284;10.158;2023-05-07T12:48:31;3.30;;;2.13;;
5674;SDS011;2860;54.284;10.158;2023-05-07T12:50:57;2.15;;;1.70;;
5674;SDS011;2860;54.284;10.158;2023-05-07T12:53:24;1.60;;;1.60;;
5674;SDS011;2860;54.284;10.158;2023-05-07T12:55:51;1.70;;;1.60;;
5674;SDS011;2860;54.284;10.158;2023-05-07T12:58:25;1.85;;;1.75;;
5674;SDS011;2860;54.284;10.158;2023-05-07T13:00:55;4.63;;;1.40;;
5674;SDS011;2860;54.284;10.158;2023-05-07T13:03:26;1.77;;;1.67;;
5674;SDS011;2860;54.284;10.158;2023-05-07T13:05:53;6.80;;;1.67;;
5674;SDS011;2860;54.284;10.158;2023-05-07T13:08:43;1.60;;;1.60;;
5674;SDS011;2860;54.284;10.158;2023-05-07T13:11:09;2.13;;;1.40;;
5674;SDS011;2860;54.284;10.158;2023-05-07T13:13:36;1.40;;;1.40;;
5674;SDS011;2860;54.284;10.158;2023-05-07T13:16:04;3.53;;;1.60;;
5674;SDS011;2860;54.284;10.158;2023-05-07T13:18:31;1.45;;;1.45;;
5674;SDS011;2860;54.284;10.158;2023-05-07T13:20:57;2.15;;;1.95;;
5674;SDS011;2860;54.284;10.158;2023-05-07T13:23:23;2.00;;;2.00;;
5674;SDS011;2860;54.284;10.158;2023-05-07T13:25:50;3.00;;;1.80;;
5674;SDS011;2860;54.284;10.158;2023-05-07T13:28:17;1.70;;;1.60;;
5674;SDS011;2860;54.284;10.158;2023-05-07T13:30:45;1.52;;;1.52;;
5674;SDS011;2860;54.284;10.158;2023-05-07T13:33:11;1.50;;;1.50;;
5674;SDS011;2860;54.284;10.158;2023-05-07T13:35:37;1.70;;;1.60;;
5674;SDS011;2860;54.284;10.158;2023-05-07T13:38:03;1.55;;;1.45;;
5674;SDS011;2860;54.284;10.158;2023-05-07T13:40:29;1.73;;;1.73;;
5674;SDS011;2860;54.284;10.158;2023-05-07T13:42:56;1.30;;;1.30;;
5674;SDS011;2860;54.284;10.158;2023-05-07T13:45:23;1.42;;;1.42;;
5674;SDS011;2860;54.284;10.158;2023-05-07T13:47:51;1.42;;;1.42;;
5674;SDS011;2860;54.284;10.158;2023-05-07T13:50:17;1.20;;;1.20;;
5674;SDS011;2860;54.284;10.158;2023-05-07T13:52:43;1.50;;;1.50;;
5674;SDS011;2860;54.284;10.158;2023-05-07T13:55:19;1.73;;;1.73;;
5674;SDS011;2860;54.284;10.158;2023-05-07T13:57:45;2.22;;;1.75;;
5674;SDS011;2860;54.284;10.158;2023-05-07T14:00:11;1.70;;;1.70;;
5674;SDS011;2860;54.284;10.158;2023-05-07T14:02:38;1.50;;;1.50;;
5674;SDS011;2860;54.284;10.158;2023-05-07T14:05:04;1.98;;;1.98;;
5674;SDS011;2860;54.284;10.158;2023-05-07T14:07:29;1.67;;;1.67;;
5674;SDS011;2860;54.284;10.158;2023-05-07T14:09:56;1.20;;;1.20;;
5674;SDS011;2860;54.284;10.158;2023-05-07T14:12:22;1.42;;;1.42;;
5674;SDS011;2860;54.284;10.158;2023-05-07T14:14:47;2.53;;;1.45;;
5674;SDS011;2860;54.284;10.158;2023-05-07T14:17:14;1.17;;;1.17;;
5674;SDS011;2860;54.284;10.158;2023-05-07T14:19:41;6.10;;;1.80;;
5674;SDS011;2860;54.284;10.158;2023-05-07T14:22:07;1.33;;;1.33;;
5674;SDS011;2860;54.284;10.158;2023-05-07T14:24:38;1.95;;;1.13;;
5674;SDS011;2860;54.284;10.158;2023-05-07T14:27:04;3.72;;;1.20;;
5674;SDS011;2860;54.284;10.158;2023-05-07T14:29:30;1.88;;;1.60;;
5674;SDS011;2860;54.284;10.158;2023-05-07T14:31:56;1.40;;;1.40;;
5674;SDS011;2860;54.284;10.158;2023-05-07T14:34:21;1.25;;;1.25;;
5674;SDS011;2860;54.284;10.158;2023-05-07T14:36:47;2.05;;;1.48;;
5674;SDS011;2860;54.284;10.158;2023-05-07T14:39:12;0.90;;;0.90;;
5674;SDS011;2860;54.284;10.158;2023-05-07T14:41:38;1.38;;;1.38;;
5674;SDS011;2860;54.284;10.158;2023-05-07T14:44:03;1.80;;;1.52;;
5674;SDS011;2860;54.284;10.158;2023-05-07T14:46:29;4.80;;;4.25;;
5674;SDS011;2860;54.284;10.158;2023-05-07T14:48:55;2.17;;;1.45;;
5674;SDS011;2860;54.284;10.158;2023-05-07T14:51:21;1.40;;;1.40;;
5674;SDS011;2860;54.284;10.158;2023-05-07T14:53:47;1.50;;;1.50;;
5674;SDS011;2860;54.284;10.158;2023-05-07T14:56:12;3.45;;;1.45;;
5674;SDS011;2860;54.284;10.158;2023-05-07T14:58:38;1.73;;;1.63;;
5674;SDS011;2860;54.284;10.158;2023-05-07T15:01:04;1.20;;;1.20;;
5674;SDS011;2860;54.284;10.158;2023-05-07T15:03:29;1.25;;;1.25;;
5674;SDS011;2860;54.284;10.158;2023-05-07T15:05:58;1.75;;;1.70;;